createdAt,value
2022-11-29T00:01:42.083Z,26.27
2022-11-29T00:04:10.604Z,26.40
2022-11-29T00:06:40.587Z,26.97
2022-11-29T00:09:12.269Z,26.83
2022-11-29T00:11:59.322Z,29.03
2022-11-29T00:14:28.736Z,30.43
2022-11-29T00:17:01.916Z,27.70
2022-11-29T00:19:31.042Z,28.20
2022-11-29T00:22:01.017Z,27.50
2022-11-29T00:24:31.522Z,27.77
2022-11-29T00:27:00.806Z,28.43
2022-11-29T00:29:30.438Z,28.43
2022-11-29T00:31:58.615Z,29.30
2022-11-29T00:34:26.883Z,28.17
2022-11-29T00:36:55.143Z,27.50
2022-11-29T00:39:25.110Z,29.50
2022-11-29T00:41:53.437Z,28.40
2022-11-29T00:44:21.579Z,28.40
2022-11-29T00:46:50.064Z,26.80
2022-11-29T00:49:18.670Z,27.83
2022-11-29T00:51:46.860Z,27.17
2022-11-29T00:54:15.371Z,27.50
2022-11-29T00:56:45.308Z,27.97
2022-11-29T00:59:13.540Z,28.03
2022-11-29T01:01:41.867Z,27.47
2022-11-29T01:04:10.211Z,29.57
2022-11-29T01:06:38.358Z,27.73
2022-11-29T01:09:06.519Z,27.20
2022-11-29T01:11:34.824Z,28.30
2022-11-29T01:14:04.759Z,26.77
2022-11-29T01:16:33.766Z,27.83
2022-11-29T01:19:02.572Z,28.57
2022-11-29T01:21:31.349Z,29.00
2022-11-29T01:24:01.501Z,26.53
2022-11-29T01:26:31.066Z,26.40
2022-11-29T01:28:59.805Z,27.33
2022-11-29T01:31:32.218Z,28.47
2022-11-29T01:34:03.004Z,28.63
2022-11-29T01:36:31.541Z,30.27
2022-11-29T01:39:00.632Z,31.13
2022-11-29T01:41:31.171Z,29.60
2022-11-29T01:44:02.742Z,30.60
2022-11-29T01:46:34.555Z,29.50
2022-11-29T01:49:09.262Z,28.27
2022-11-29T01:51:43.003Z,27.50
2022-11-29T01:54:13.220Z,29.67
2022-11-29T01:56:44.510Z,28.23
2022-11-29T01:59:16.123Z,28.70
2022-11-29T02:01:45.757Z,28.13
2022-11-29T02:04:14.767Z,30.07
2022-11-29T02:06:44.095Z,31.00
2022-11-29T02:09:20.463Z,30.50
2022-11-29T02:12:05.812Z,27.73
2022-11-29T02:14:53.819Z,28.77
2022-11-29T02:17:34.097Z,30.10
2022-11-29T02:20:43.524Z,31.07
2022-11-29T02:23:33.607Z,28.00
2022-11-29T02:26:19.395Z,28.00
2022-11-29T02:29:16.937Z,30.97
2022-11-29T02:32:08.210Z,29.50
2022-11-29T02:34:54.296Z,28.83
2022-11-29T02:37:50.500Z,27.37
2022-11-29T02:40:46.281Z,28.27
2022-11-29T02:43:52.575Z,27.70
2022-11-29T02:46:41.412Z,30.43
2022-11-29T02:49:20.432Z,28.67
2022-11-29T02:51:57.804Z,28.50
2022-11-29T02:54:30.973Z,27.33
2022-11-29T02:57:05.118Z,28.13
2022-11-29T02:59:44.155Z,28.47
2022-11-29T03:02:23.362Z,28.50
2022-11-29T03:04:58.338Z,28.83
2022-11-29T03:07:38.343Z,27.27
2022-11-29T03:10:13.162Z,25.93
2022-11-29T03:12:43.935Z,27.63
2022-11-29T03:15:26.395Z,26.80
2022-11-29T03:18:14.907Z,27.77
2022-11-29T03:20:56.539Z,27.50
2022-11-29T03:23:32.520Z,26.23
2022-11-29T03:26:07.410Z,26.37
2022-11-29T03:28:42.290Z,29.13
2022-11-29T03:31:15.225Z,27.13
2022-11-29T03:33:52.539Z,27.00
2022-11-29T03:36:30.555Z,28.63
2022-11-29T03:39:06.176Z,27.83
2022-11-29T03:41:42.556Z,25.67
2022-11-29T03:44:16.785Z,27.13
2022-11-29T03:46:51.693Z,28.47
2022-11-29T03:49:26.671Z,25.83
2022-11-29T03:52:03.886Z,28.80
2022-11-29T03:54:43.475Z,26.40
2022-11-29T03:57:14.931Z,28.63
2022-11-29T03:59:57.227Z,29.17
2022-11-29T04:03:02.993Z,29.47
2022-11-29T04:05:48.512Z,28.60
2022-11-29T04:08:43.895Z,28.23
2022-11-29T04:11:55.628Z,28.60
2022-11-29T04:14:34.694Z,28.13
2022-11-29T04:17:48.829Z,30.73
2022-11-29T04:20:48.226Z,29.60
2022-11-29T04:23:56.816Z,27.70
2022-11-29T04:26:53.609Z,30.37
2022-11-29T04:29:45.026Z,27.70
2022-11-29T04:32:34.154Z,30.10
2022-11-29T04:35:45.180Z,30.40
2022-11-29T04:38:40.890Z,28.10
2022-11-29T04:41:41.906Z,29.73
2022-11-29T04:44:28.359Z,28.00
2022-11-29T04:47:17.167Z,31.10
2022-11-29T04:50:04.459Z,29.47
2022-11-29T04:52:43.875Z,26.90
2022-11-29T04:55:30.493Z,28.80
2022-11-29T04:58:06.496Z,29.70
2022-11-29T05:00:42.992Z,28.40
2022-11-29T05:03:17.558Z,27.60
2022-11-29T05:05:52.584Z,30.30
2022-11-29T05:08:28.460Z,27.33
2022-11-29T05:11:04.780Z,27.77
2022-11-29T05:13:46.157Z,28.30
2022-11-29T05:16:34.586Z,27.13
2022-11-29T05:19:25.571Z,28.60
2022-11-29T05:22:03.267Z,29.83
2022-11-29T05:24:47.301Z,28.97
2022-11-29T05:27:24.133Z,30.23
2022-11-29T05:29:58.328Z,30.00
2022-11-29T05:32:36.729Z,28.80
2022-11-29T05:35:33.904Z,29.70
2022-11-29T05:38:12.359Z,30.03
2022-11-29T05:40:47.426Z,32.90
2022-11-29T05:43:31.400Z,31.23
2022-11-29T05:46:06.026Z,28.07
2022-11-29T05:48:45.250Z,29.87
2022-11-29T05:51:22.342Z,30.50
2022-11-29T05:53:59.363Z,31.73
2022-11-29T05:56:43.218Z,31.93
2022-11-29T05:59:16.315Z,32.57
2022-11-29T06:01:53.334Z,30.03
2022-11-29T06:04:28.775Z,29.90
2022-11-29T06:07:04.831Z,30.90
2022-11-29T06:09:38.165Z,31.03
2022-11-29T06:12:18.171Z,30.60
2022-11-29T06:15:07.203Z,28.60
2022-11-29T06:17:48.743Z,29.40
2022-11-29T06:20:32.310Z,31.00
2022-11-29T06:23:16.222Z,30.73
2022-11-29T06:26:03.519Z,29.60
2022-11-29T06:28:50.605Z,28.90
2022-11-29T06:31:24.620Z,32.17
2022-11-29T06:34:02.625Z,29.60
2022-11-29T06:36:41.080Z,29.47
2022-11-29T06:39:10.807Z,29.50
2022-11-29T06:41:39.087Z,29.97
2022-11-29T06:44:08.219Z,30.50
2022-11-29T06:46:46.504Z,29.50
2022-11-29T06:49:23.287Z,31.87
2022-11-29T06:52:05.028Z,31.60
2022-11-29T06:54:49.524Z,31.50
2022-11-29T06:57:25.722Z,30.97
2022-11-29T07:00:04.474Z,30.20
2022-11-29T07:02:51.175Z,31.00
2022-11-29T07:05:25.183Z,30.77
2022-11-29T07:07:57.570Z,30.73
2022-11-29T07:10:27.867Z,30.77
2022-11-29T07:12:56.574Z,30.23
2022-11-29T07:15:25.476Z,29.40
2022-11-29T07:18:10.044Z,30.73
2022-11-29T07:20:50.236Z,30.73
2022-11-29T07:23:33.661Z,30.07
2022-11-29T07:26:10.544Z,31.53
2022-11-29T07:28:48.370Z,30.57
2022-11-29T07:31:25.150Z,30.87
2022-11-29T07:33:59.780Z,31.10
2022-11-29T07:36:35.104Z,29.37
2022-11-29T07:39:20.019Z,28.53
2022-11-29T07:41:57.771Z,30.17
2022-11-29T07:44:35.126Z,32.47
2022-11-29T07:47:03.397Z,30.80
2022-11-29T07:49:31.746Z,30.00
2022-11-29T07:51:59.922Z,34.17
2022-11-29T07:54:29.651Z,32.13
2022-11-29T07:56:57.797Z,32.20
2022-11-29T07:59:25.920Z,32.13
2022-11-29T08:01:54.181Z,31.07
2022-11-29T08:04:22.375Z,31.23
2022-11-29T08:06:50.503Z,30.30
2022-11-29T08:09:19.156Z,32.77
2022-11-29T08:11:48.865Z,31.10
2022-11-29T08:14:16.996Z,31.27
2022-11-29T08:16:45.228Z,32.57
2022-11-29T08:19:13.416Z,34.33
2022-11-29T08:21:44.204Z,32.37
2022-11-29T08:24:12.726Z,31.10
2022-11-29T08:26:41.013Z,32.40
2022-11-29T08:29:10.523Z,32.50
2022-11-29T08:31:38.945Z,32.07
2022-11-29T08:34:07.930Z,30.20
2022-11-29T08:36:36.060Z,30.53
2022-11-29T08:39:09.347Z,31.97
2022-11-29T08:41:37.804Z,34.67
2022-11-29T08:44:06.539Z,30.40
2022-11-29T08:46:54.411Z,30.90
2022-11-29T08:49:22.612Z,32.23
2022-11-29T08:51:52.311Z,32.07
2022-11-29T08:54:19.471Z,32.23
2022-11-29T08:57:31.072Z,31.23
2022-11-29T08:59:35.797Z,33.10
2022-11-29T09:02:05.326Z,32.60
2022-11-29T09:04:33.458Z,31.27
2022-11-29T09:07:01.625Z,31.00
2022-11-29T09:09:29.741Z,32.13
2022-11-29T09:11:57.831Z,33.07
2022-11-29T09:14:26.125Z,31.80
2022-11-29T09:16:54.311Z,33.10
2022-11-29T09:19:23.822Z,31.40
2022-11-29T09:21:51.959Z,31.40
2022-11-29T09:24:20.612Z,33.10
2022-11-29T09:26:48.819Z,32.57
2022-11-29T09:29:18.377Z,31.70
2022-11-29T09:31:46.703Z,34.40
2022-11-29T09:34:15.101Z,31.83
2022-11-29T09:36:44.991Z,32.33
2022-11-29T09:39:13.322Z,32.50
2022-11-29T09:42:04.996Z,32.30
2022-11-29T09:44:41.856Z,32.30
2022-11-29T09:47:26.765Z,31.40
2022-11-29T09:50:02.047Z,33.77
2022-11-29T09:52:48.379Z,32.40
2022-11-29T09:55:38.755Z,32.97
2022-11-29T09:58:10.859Z,34.63
2022-11-29T10:00:45.502Z,32.73
2022-11-29T10:03:21.397Z,32.20
2022-11-29T10:05:54.666Z,33.53
2022-11-29T10:08:29.610Z,32.20
2022-11-29T10:11:07.713Z,32.70
2022-11-29T10:13:38.128Z,32.50
2022-11-29T10:16:15.109Z,31.87
2022-11-29T10:18:49.664Z,30.87
2022-11-29T10:21:21.535Z,33.77
2022-11-29T10:23:55.117Z,31.00
2022-11-29T10:26:25.885Z,31.20
2022-11-29T10:28:57.953Z,33.40
2022-11-29T10:31:28.678Z,34.47
2022-11-29T10:33:58.546Z,30.93
2022-11-29T10:36:30.835Z,30.50
2022-11-29T10:39:04.113Z,30.40
2022-11-29T10:41:33.011Z,30.13
2022-11-29T10:44:02.215Z,32.93
2022-11-29T10:46:33.107Z,31.80
2022-11-29T10:49:05.748Z,33.47
2022-11-29T10:51:35.068Z,29.73
2022-11-29T10:54:21.341Z,32.53
2022-11-29T10:56:49.663Z,31.80
2022-11-29T10:59:22.839Z,29.17
2022-11-29T11:01:51.787Z,33.27
2022-11-29T11:04:29.508Z,32.43
2022-11-29T11:07:01.263Z,32.30
2022-11-29T11:09:36.437Z,28.50
2022-11-29T11:12:08.557Z,30.40
2022-11-29T11:14:38.797Z,31.10
2022-11-29T11:17:22.413Z,31.70
2022-11-29T11:19:58.863Z,31.97
2022-11-29T11:22:28.597Z,30.57
2022-11-29T11:25:06.887Z,31.57
2022-11-29T11:27:39.772Z,29.80
2022-11-29T11:30:19.390Z,31.47
2022-11-29T11:33:08.730Z,30.47
2022-11-29T11:35:37.308Z,30.87
2022-11-29T11:38:05.489Z,29.47
2022-11-29T11:40:35.088Z,27.77
2022-11-29T11:43:03.812Z,30.27
2022-11-29T11:45:35.530Z,31.37
2022-11-29T11:48:12.530Z,29.40
2022-11-29T11:50:45.772Z,29.73
2022-11-29T11:53:22.181Z,28.60
2022-11-29T11:56:00.558Z,28.87
2022-11-29T11:58:30.314Z,28.97
2022-11-29T12:01:04.715Z,29.30
2022-11-29T12:03:44.887Z,29.77
2022-11-29T12:06:26.241Z,28.77
2022-11-29T12:08:59.529Z,30.17
2022-11-29T12:11:35.795Z,30.20
2022-11-29T12:14:07.115Z,27.30
2022-11-29T12:16:40.245Z,29.90
2022-11-29T12:19:16.324Z,31.47
2022-11-29T12:21:48.407Z,28.90
2022-11-29T12:24:22.853Z,28.30
2022-11-29T12:26:57.900Z,30.07
2022-11-29T12:29:30.724Z,31.13
2022-11-29T12:32:12.670Z,28.63
2022-11-29T12:34:54.480Z,26.57
2022-11-29T12:37:31.043Z,29.40
2022-11-29T12:40:07.223Z,29.60
2022-11-29T12:42:47.271Z,29.50
2022-11-29T12:45:40.159Z,29.43
2022-11-29T12:48:21.456Z,31.60
2022-11-29T12:51:01.906Z,29.90
2022-11-29T12:53:45.273Z,30.70
2022-11-29T12:56:16.983Z,28.80
2022-11-29T12:59:13.470Z,28.43
2022-11-29T13:01:58.712Z,30.90
2022-11-29T13:04:36.261Z,31.30
2022-11-29T13:07:13.310Z,30.60
2022-11-29T13:09:57.008Z,31.90
2022-11-29T13:12:33.907Z,30.57
2022-11-29T13:15:07.951Z,27.87
2022-11-29T13:17:43.539Z,32.67
2022-11-29T13:20:30.699Z,29.67
2022-11-29T13:23:06.034Z,29.73
2022-11-29T13:25:38.844Z,30.70
2022-11-29T13:28:12.018Z,29.40
2022-11-29T13:30:41.898Z,28.00
2022-11-29T13:33:20.462Z,28.17
2022-11-29T13:35:57.471Z,28.57
2022-11-29T13:38:32.392Z,32.00
2022-11-29T13:41:10.923Z,28.73
2022-11-29T13:43:44.249Z,31.10
2022-11-29T13:46:23.855Z,30.30
2022-11-29T13:48:54.113Z,31.97
2022-11-29T13:51:27.075Z,30.83
2022-11-29T13:53:57.138Z,29.90
2022-11-29T13:56:29.672Z,28.67
2022-11-29T13:58:58.975Z,29.73
2022-11-29T14:01:29.937Z,31.97
2022-11-29T14:04:31.422Z,33.80
2022-11-29T14:07:05.665Z,34.60
2022-11-29T14:09:44.343Z,31.53
2022-11-29T14:12:39.764Z,31.67
2022-11-29T14:15:23.106Z,31.10
2022-11-29T14:17:55.443Z,32.40
2022-11-29T14:20:57.787Z,31.13
2022-11-29T14:23:37.957Z,30.73
2022-11-29T14:26:28.808Z,29.93
2022-11-29T14:28:58.698Z,34.90
2022-11-29T14:31:53.013Z,30.67
2022-11-29T14:34:37.524Z,31.30
2022-11-29T14:37:18.327Z,34.17
2022-11-29T14:39:50.316Z,33.07
2022-11-29T14:42:20.395Z,31.67
2022-11-29T14:44:52.111Z,32.23
2022-11-29T14:47:29.920Z,32.37
2022-11-29T14:50:03.778Z,32.90
2022-11-29T14:52:35.961Z,32.30
2022-11-29T14:55:09.648Z,33.97
2022-11-29T14:58:14.786Z,31.83
2022-11-29T15:01:02.701Z,33.70
2022-11-29T15:03:37.559Z,33.67
2022-11-29T15:06:14.568Z,34.30
2022-11-29T15:08:52.503Z,31.77
2022-11-29T15:11:33.622Z,32.43
2022-11-29T15:14:05.725Z,37.10
2022-11-29T15:16:51.693Z,33.87
2022-11-29T15:19:53.711Z,36.10
2022-11-29T15:22:27.601Z,33.03
2022-11-29T15:24:58.895Z,33.43
2022-11-29T15:27:27.815Z,36.57
2022-11-29T15:29:56.014Z,35.07
2022-11-29T15:32:26.303Z,36.80
2022-11-29T15:34:56.143Z,33.13
2022-11-29T15:37:40.771Z,34.50
2022-11-29T15:40:14.073Z,35.30
2022-11-29T15:42:44.789Z,35.07
2022-11-29T15:45:27.698Z,37.00
2022-11-29T15:47:56.133Z,34.40
2022-11-29T15:50:26.693Z,35.07
2022-11-29T15:53:01.316Z,33.97
2022-11-29T15:55:30.510Z,34.83
2022-11-29T15:58:05.515Z,34.80
2022-11-29T16:00:37.308Z,35.30
2022-11-29T16:03:08.575Z,36.37
2022-11-29T16:05:38.704Z,36.33
2022-11-29T16:08:15.049Z,34.70
2022-11-29T16:10:47.447Z,37.00
2022-11-29T16:13:32.570Z,35.87
2022-11-29T16:16:07.579Z,35.47
2022-11-29T16:18:37.180Z,34.93
2022-11-29T16:21:07.515Z,34.77
2022-11-29T16:23:38.348Z,34.67
2022-11-29T16:26:14.767Z,34.80
2022-11-29T16:28:45.402Z,34.10
2022-11-29T16:31:18.155Z,36.70
2022-11-29T16:33:48.962Z,37.40
2022-11-29T16:36:20.752Z,38.90
2022-11-29T16:38:52.912Z,38.27
2022-11-29T16:41:31.240Z,34.90
2022-11-29T16:44:00.177Z,35.50
2022-11-29T16:46:33.872Z,37.17
2022-11-29T16:49:04.812Z,35.73
2022-11-29T16:51:39.791Z,34.27
2022-11-29T16:54:24.628Z,36.73
2022-11-29T16:56:54.245Z,33.73
2022-11-29T16:59:26.910Z,34.97
2022-11-29T17:01:56.628Z,35.70
2022-11-29T17:04:25.482Z,38.97
2022-11-29T17:06:54.968Z,37.97
2022-11-29T17:09:26.689Z,37.17
2022-11-29T17:11:55.497Z,39.00
2022-11-29T17:14:23.751Z,33.83
2022-11-29T17:16:52.331Z,34.60
2022-11-29T17:19:25.467Z,33.60
2022-11-29T17:21:53.665Z,38.03
2022-11-29T17:24:23.405Z,35.10
2022-11-29T17:26:52.948Z,36.20
2022-11-29T17:29:21.457Z,38.90
2022-11-29T17:31:50.543Z,41.10
2022-11-29T17:34:18.887Z,41.80
2022-11-29T17:36:47.192Z,35.87
2022-11-29T17:39:19.957Z,38.00
2022-11-29T17:41:48.411Z,39.80
2022-11-29T17:44:18.147Z,38.43
2022-11-29T17:46:46.373Z,37.97
2022-11-29T17:49:14.482Z,35.80
2022-11-29T17:51:52.781Z,37.67
2022-11-29T17:54:22.168Z,39.37
2022-11-29T17:56:50.586Z,37.70
2022-11-29T17:59:20.451Z,37.93
2022-11-29T18:01:48.845Z,39.20
2022-11-29T18:04:17.052Z,38.93
2022-11-29T18:06:49.673Z,37.37
2022-11-29T18:09:19.801Z,39.53
2022-11-29T18:11:50.297Z,40.57
2022-11-29T18:14:22.883Z,41.17
2022-11-29T18:16:51.624Z,39.67
2022-11-29T18:19:22.208Z,38.63
2022-11-29T18:21:50.978Z,42.67
2022-11-29T18:24:19.774Z,39.13
2022-11-29T18:26:48.174Z,38.07
2022-11-29T18:29:16.376Z,37.80
2022-11-29T18:31:46.969Z,39.23
2022-11-29T18:34:15.851Z,41.17
2022-11-29T18:36:45.952Z,40.83
2022-11-29T18:39:16.132Z,40.77
2022-11-29T18:41:48.065Z,39.33
2022-11-29T18:44:18.908Z,39.97
2022-11-29T18:46:48.906Z,40.80
2022-11-29T18:49:18.413Z,42.37
2022-11-29T18:51:48.602Z,43.13
2022-11-29T18:54:18.372Z,39.67
2022-11-29T18:56:46.746Z,41.97
2022-11-29T18:59:17.634Z,40.47
2022-11-29T19:01:49.084Z,39.90
2022-11-29T19:04:19.235Z,41.23
2022-11-29T19:06:48.460Z,41.40
2022-11-29T19:09:19.236Z,42.33
2022-11-29T19:11:48.664Z,40.90
2022-11-29T19:14:16.938Z,40.60
2022-11-29T19:16:48.895Z,41.63
2022-11-29T19:19:18.620Z,40.00
2022-11-29T19:21:47.202Z,43.97
2022-11-29T19:24:17.832Z,40.57
2022-11-29T19:26:48.960Z,41.53
2022-11-29T19:29:17.567Z,41.13
2022-11-29T19:31:46.037Z,43.37
2022-11-29T19:34:15.546Z,42.37
2022-11-29T19:36:45.515Z,42.10
2022-11-29T19:39:15.952Z,43.23
2022-11-29T19:41:45.543Z,41.77
2022-11-29T19:44:14.253Z,45.87
2022-11-29T19:46:44.015Z,42.20
2022-11-29T19:49:12.853Z,42.23
2022-11-29T19:51:42.657Z,44.37
2022-11-29T19:54:11.927Z,41.97
2022-11-29T19:56:40.697Z,43.90
2022-11-29T19:59:09.347Z,43.57
2022-11-29T20:01:41.393Z,44.20
2022-11-29T20:04:12.244Z,43.73
2022-11-29T20:06:44.302Z,46.90
2022-11-29T20:09:14.433Z,43.60
2022-11-29T20:11:42.688Z,45.73
2022-11-29T20:14:12.192Z,42.33
2022-11-29T20:16:40.348Z,43.70
2022-11-29T20:19:11.672Z,44.27
2022-11-29T20:21:47.716Z,43.80
2022-11-29T20:24:17.349Z,44.40
2022-11-29T20:26:47.958Z,43.83
2022-11-29T20:29:16.480Z,43.70
2022-11-29T20:31:50.127Z,44.27
2022-11-29T20:34:20.013Z,42.67
2022-11-29T20:37:09.263Z,46.40
2022-11-29T20:39:43.977Z,40.70
2022-11-29T20:42:47.310Z,43.97
2022-11-29T20:45:17.103Z,42.97
2022-11-29T20:47:53.946Z,41.70
2022-11-29T20:50:24.286Z,43.53
2022-11-29T20:53:13.080Z,45.67
2022-11-29T20:55:46.436Z,44.37
2022-11-29T20:58:16.334Z,46.03
2022-11-29T21:00:44.677Z,44.50
2022-11-29T21:03:14.513Z,43.80
2022-11-29T21:05:43.317Z,44.80
2022-11-29T21:08:13.938Z,46.33
2022-11-29T21:10:42.499Z,45.23
2022-11-29T21:13:12.604Z,45.73
2022-11-29T21:15:41.614Z,46.23
2022-11-29T21:18:20.201Z,43.20
2022-11-29T21:20:56.616Z,43.43
2022-11-29T21:23:39.000Z,47.37
2022-11-29T21:26:14.569Z,44.77
2022-11-29T21:28:50.147Z,43.53
2022-11-29T21:31:19.097Z,45.97
2022-11-29T21:33:47.919Z,44.07
2022-11-29T21:36:16.288Z,48.07
2022-11-29T21:38:50.889Z,44.20
2022-11-29T21:41:22.352Z,43.30
2022-11-29T21:44:05.910Z,45.87
2022-11-29T21:46:35.561Z,43.97
2022-11-29T21:49:03.754Z,49.87
2022-11-29T21:51:31.887Z,42.87
2022-11-29T21:54:02.128Z,47.10
2022-11-29T21:56:30.275Z,44.40
2022-11-29T21:58:58.525Z,44.53
2022-11-29T22:01:30.020Z,42.97
2022-11-29T22:03:58.698Z,44.23
2022-11-29T22:06:28.252Z,45.40
2022-11-29T22:08:56.384Z,39.60
2022-11-29T22:11:31.873Z,40.70
2022-11-29T22:14:18.126Z,45.23
2022-11-29T22:16:48.964Z,43.93
2022-11-29T22:19:19.059Z,42.47
2022-11-29T22:21:49.524Z,43.00
2022-11-29T22:24:19.530Z,44.47
2022-11-29T22:26:49.621Z,42.90
2022-11-29T22:29:18.183Z,42.70
2022-11-29T22:31:48.394Z,43.30
2022-11-29T22:34:16.879Z,42.70
2022-11-29T22:36:45.045Z,40.97
2022-11-29T22:39:13.258Z,43.97
2022-11-29T22:41:42.279Z,44.50
2022-11-29T22:44:11.752Z,42.80
2022-11-29T22:46:41.108Z,40.23
2022-11-29T22:49:09.689Z,40.37
2022-11-29T22:51:39.253Z,41.80
2022-11-29T22:54:08.916Z,44.00
2022-11-29T22:56:39.283Z,43.93
2022-11-29T22:59:07.678Z,43.67
2022-11-29T23:01:39.110Z,43.83
2022-11-29T23:04:11.872Z,40.17
2022-11-29T23:06:42.855Z,41.50
2022-11-29T23:09:15.761Z,42.30
2022-11-29T23:11:45.234Z,40.03
2022-11-29T23:14:13.981Z,44.00
2022-11-29T23:16:43.551Z,43.20
2022-11-29T23:19:11.803Z,41.97
2022-11-29T23:21:41.490Z,40.83
2022-11-29T23:24:10.154Z,44.10
2022-11-29T23:26:40.263Z,43.70
2022-11-29T23:29:10.161Z,44.03
2022-11-29T23:31:38.539Z,42.93
2022-11-29T23:34:08.281Z,42.97
2022-11-29T23:36:36.554Z,43.03
2022-11-29T23:39:06.505Z,43.00
2022-11-29T23:41:35.230Z,44.10
2022-11-29T23:44:04.490Z,46.23
2022-11-29T23:46:33.436Z,42.77
2022-11-29T23:49:01.608Z,41.83
2022-11-29T23:51:31.102Z,41.37
2022-11-29T23:53:59.267Z,44.17
2022-11-29T23:56:30.735Z,44.87
2022-11-29T23:58:58.857Z,42.10
